Time;durP1;ratioP1;P1;durP2;ratioP2;P2;SDS_P1;SDS_P2;PMS_P1;PMS_P2;Temp;Humidity;BMP_temperature;BMP_pressure;BME280_temperature;BME280_humidity;BME280_pressure;Samples;Min_cycle;Max_cycle;Signal;HPM_P1;HPM_P2
2022/08/24 00:02:00;;;;;;;42.05;37.75;;;;;;;20.15;100.00;101704.72;4966807;28;20399;-80
2022/08/24 00:04:31;;;;;;;43.42;38.80;;;;;;;20.12;100.00;101693.19;4961111;28;20045;-80
2022/08/24 00:07:01;;;;;;;43.63;39.22;;;;;;;20.08;100.00;101697.75;4958964;28;20042;-81
2022/08/24 00:09:32;;;;;;;42.28;37.70;;;;;;;20.05;100.00;101695.13;4987565;28;20041;-80
2022/08/24 00:12:01;;;;;;;42.58;38.08;;;;;;;20.02;100.00;101703.25;4997101;28;20414;-80
2022/08/24 00:14:31;;;;;;;42.42;37.97;;;;;;;19.98;100.00;101697.06;4998761;28;20042;-82
2022/08/24 00:17:00;;;;;;;42.67;38.38;;;;;;;19.96;100.00;101700.69;5003381;28;20054;-81
2022/08/24 00:19:28;;;;;;;42.83;37.25;;;;;;;19.92;100.00;101712.38;4955502;28;20588;-81
2022/08/24 00:21:59;;;;;;;38.97;34.97;;;;;;;19.90;100.00;101714.19;4980325;28;20049;-80
2022/08/24 00:24:27;;;;;;;37.97;34.17;;;;;;;19.85;100.00;101715.19;4967510;28;20561;-81
2022/08/24 00:26:56;;;;;;;40.38;36.30;;;;;;;19.83;100.00;101713.47;5004122;28;20045;-81
2022/08/24 00:29:25;;;;;;;42.50;37.85;;;;;;;19.81;100.00;101716.16;4987476;28;20046;-80
2022/08/24 00:31:53;;;;;;;41.70;37.40;;;;;;;19.79;100.00;101714.41;4973566;28;20064;-80
2022/08/24 00:34:22;;;;;;;42.13;37.75;;;;;;;19.76;100.00;101712.69;4965878;28;21603;-80
2022/08/24 00:36:50;;;;;;;41.00;36.78;;;;;;;19.74;100.00;101714.53;4983225;28;20399;-80
2022/08/24 00:39:19;;;;;;;39.75;35.75;;;;;;;19.71;100.00;101719.91;4977454;28;20224;-79
2022/08/24 00:41:50;;;;;;;40.95;36.90;;;;;;;19.69;100.00;101716.38;4961334;28;20049;-79
2022/08/24 00:44:20;;;;;;;42.40;38.10;;;;;;;19.67;100.00;101721.75;4983845;28;20046;-81
2022/08/24 00:47:09;;;;;;;41.20;36.83;;;;;;;19.66;100.00;101721.81;4987139;28;20549;-80
2022/08/24 00:49:53;;;;;;;44.03;37.43;;;;;;;19.62;100.00;101726.34;5006279;28;20302;-80
2022/08/24 00:52:28;;;;;;;42.88;38.15;;;;;;;19.58;100.00;101719.28;4966164;28;20262;-79
2022/08/24 00:55:08;;;;;;;40.63;36.45;;;;;;;19.56;100.00;101734.47;4991895;28;20073;-82
2022/08/24 00:57:41;;;;;;;41.42;36.92;;;;;;;19.54;100.00;101722.06;4972670;28;20034;-81
2022/08/24 01:00:15;;;;;;;39.70;35.47;;;;;;;19.51;100.00;101719.44;4995101;28;20033;-80
2022/08/24 01:02:47;;;;;;;41.15;36.78;;;;;;;19.48;100.00;101723.06;4988880;28;20056;-80
2022/08/24 01:05:17;;;;;;;45.78;37.92;;;;;;;19.47;100.00;101727.53;4997004;28;20158;-81
2022/08/24 01:07:49;;;;;;;43.75;39.42;;;;;;;19.44;100.00;101727.56;4952132;28;20042;-81
2022/08/24 01:10:24;;;;;;;44.45;40.05;;;;;;;19.44;100.00;101716.88;4967850;28;20072;-79
2022/08/24 01:12:57;;;;;;;45.40;40.80;;;;;;;19.43;100.00;101724.94;5000068;28;20502;-80
2022/08/24 01:15:31;;;;;;;44.95;40.00;;;;;;;19.39;100.00;101721.44;4993672;28;20037;-79
2022/08/24 01:20:56;;;;;;;45.53;40.72;;;;;;;19.33;100.00;101720.69;5010946;28;20054;-80
2022/08/24 01:23:43;;;;;;;44.63;38.70;;;;;;;19.29;100.00;101711.84;4943619;28;20064;-80
2022/08/24 01:26:38;;;;;;;40.72;36.15;;;;;;;19.25;100.00;101721.72;5002116;28;20055;-80
2022/08/24 01:29:12;;;;;;;43.08;38.63;;;;;;;19.24;100.00;101717.28;4972501;28;20054;-80
2022/08/24 01:31:41;;;;;;;42.85;38.50;;;;;;;19.23;100.00;101712.84;4970613;28;20526;-80
2022/08/24 01:34:11;;;;;;;44.65;39.72;;;;;;;19.21;100.00;101719.13;4952573;28;20372;-81
2022/08/24 01:36:47;;;;;;;;;;;;;;;19.18;100.00;101719.19;4996668;28;20041;-79
2022/08/24 01:39:24;;;;;;;44.53;39.75;;;;;;;19.15;100.00;101721.91;4963292;28;19930;-80
2022/08/24 01:41:53;;;;;;;44.35;39.67;;;;;;;19.14;100.00;101718.34;4976434;28;20038;-79
2022/08/24 01:44:23;;;;;;;44.20;39.63;;;;;;;19.13;100.00;101719.28;4970763;28;20145;-80
2022/08/24 01:46:54;;;;;;;43.88;39.28;;;;;;;19.12;100.00;101719.31;4991219;28;20048;-80
2022/08/24 01:49:24;;;;;;;;;;;;;;;19.08;100.00;101727.38;4993843;28;20267;-80
2022/08/24 01:51:54;;;;;;;44.95;40.10;;;;;;;19.07;100.00;101727.38;4964912;28;19921;-79
2022/08/24 01:54:23;;;;;;;42.90;38.35;;;;;;;19.04;100.00;101723.00;4963207;28;20053;-80
2022/08/24 01:56:52;;;;;;;43.30;38.67;;;;;;;19.04;100.00;101727.47;4990549;28;20042;-80
2022/08/24 01:59:21;;;;;;;43.20;38.47;;;;;;;19.02;100.00;101723.94;4987730;28;20530;-80
2022/08/24 02:02:01;;;;;;;41.92;37.38;;;;;;;19.02;100.00;101729.28;4991261;28;20046;-81
2022/08/24 02:04:34;;;;;;;42.47;37.95;;;;;;;19.01;100.00;101732.84;4991273;28;20046;-81
2022/08/24 02:07:03;;;;;;;42.13;37.63;;;;;;;18.99;100.00;101743.56;4983207;28;20053;-81
2022/08/24 02:09:35;;;;;;;39.53;35.33;;;;;;;18.97;100.00;101737.34;4959146;28;20046;-79
2022/08/24 02:12:06;;;;;;;40.40;36.10;;;;;;;18.96;100.00;101740.06;4979673;28;20053;-80
2022/08/24 02:14:36;;;;;;;51.57;45.63;;;;;;;18.95;100.00;101738.31;4998872;28;20044;-80
2022/08/24 02:17:07;;;;;;;49.28;43.92;;;;;;;18.96;100.00;101746.28;4986124;28;20050;-80
2022/08/24 02:19:36;;;;;;;58.28;50.28;;;;;;;18.98;100.00;101741.81;4972450;28;20068;-79
2022/08/24 02:22:09;;;;;;;53.00;46.20;;;;;;;18.97;100.00;101740.03;4983457;28;20030;-80
2022/08/24 02:24:39;;;;;;;54.42;45.47;;;;;;;18.96;100.00;101740.97;4939731;28;20042;-80
2022/08/24 02:27:07;;;;;;;49.63;42.95;;;;;;;18.95;100.00;101738.31;4983253;28;21821;-80
2022/08/24 02:29:36;;;;;;;46.22;41.38;;;;;;;18.90;100.00;101733.03;4985764;28;20047;-79
2022/08/24 02:32:06;;;;;;;47.20;40.88;;;;;;;18.88;100.00;101740.19;4982727;28;20038;-80
2022/08/24 02:34:35;;;;;;;47.65;42.35;;;;;;;18.86;100.00;101745.53;4973019;28;20042;-80
2022/08/24 02:37:04;;;;;;;47.47;42.28;;;;;;;18.84;100.00;101734.00;4986780;28;20058;-80
2022/08/24 02:39:32;;;;;;;48.17;42.97;;;;;;;18.84;100.00;101735.81;4952695;28;20041;-79
2022/08/24 02:42:05;;;;;;;46.25;41.28;;;;;;;18.82;100.00;101729.63;4989975;28;20041;-81
2022/08/24 02:44:34;;;;;;;46.63;41.47;;;;;;;18.80;100.00;101737.66;5007207;28;20046;-81
2022/08/24 02:47:02;;;;;;;46.80;41.85;;;;;;;18.77;100.00;101729.69;4971684;28;20530;-80
2022/08/24 02:49:34;;;;;;;47.13;41.90;;;;;;;18.75;100.00;101734.16;4989554;28;20447;-81
2022/08/24 02:52:03;;;;;;;47.17;41.75;;;;;;;18.73;100.00;101735.06;4996189;28;20525;-80
2022/08/24 02:54:33;;;;;;;45.83;40.88;;;;;;;18.70;100.00;101742.22;4988038;28;20049;-81
2022/08/24 02:57:02;;;;;;;49.80;44.50;;;;;;;18.70;100.00;101739.56;4969065;28;20049;-82
2022/08/24 02:59:31;;;;;;;51.90;45.47;;;;;;;18.69;100.00;101736.91;4956988;28;20407;-80
2022/08/24 03:01:59;;;;;;;54.33;43.92;;;;;;;18.68;100.00;101740.50;4976725;28;20050;-80
2022/08/24 03:04:28;;;;;;;52.10;45.53;;;;;;;18.68;100.00;101735.16;4971071;28;20316;-79
2022/08/24 03:06:57;;;;;;;50.65;45.00;;;;;;;18.67;100.00;101736.06;5003097;28;20038;-79
2022/08/24 03:09:26;;;;;;;50.95;44.88;;;;;;;18.65;100.00;101740.53;4970453;28;20077;-81
2022/08/24 03:11:57;;;;;;;51.13;43.38;;;;;;;18.63;100.00;101743.22;4938885;28;20097;-80
2022/08/24 03:14:26;;;;;;;52.55;42.75;;;;;;;18.61;100.00;101742.38;4985922;28;20502;-80
2022/08/24 03:16:55;;;;;;;51.63;44.47;;;;;;;18.61;100.00;101742.38;4987869;28;20510;-79
2022/08/24 03:19:23;;;;;;;48.60;43.20;;;;;;;18.60;100.00;101747.72;4980068;28;20246;-81
2022/08/24 03:21:53;;;;;;;49.10;42.90;;;;;;;18.59;100.00;101743.31;4992265;28;20037;-80
2022/08/24 03:24:22;;;;;;;48.90;43.05;;;;;;;18.57;100.00;101740.66;4964379;28;20042;-80
2022/08/24 03:26:50;;;;;;;51.17;43.00;;;;;;;18.56;100.00;101752.22;4988478;28;20400;-80
2022/08/24 03:29:19;;;;;;;56.83;46.20;;;;;;;18.55;100.00;101750.50;4942387;28;20046;-79
2022/08/24 03:31:51;;;;;;;51.33;44.80;;;;;;;18.55;100.00;101752.28;4981531;28;20037;-80
2022/08/24 03:34:23;;;;;;;52.92;43.25;;;;;;;18.54;100.00;101754.03;5001812;28;20045;-79
2022/08/24 03:36:52;;;;;;;51.90;44.95;;;;;;;18.53;100.00;101754.97;4981746;28;20640;-79
2022/08/24 03:39:20;;;;;;;50.08;43.78;;;;;;;18.54;100.00;101751.38;4968473;28;20050;-80
2022/08/24 03:41:53;;;;;;;53.03;44.78;;;;;;;18.55;100.00;101753.16;4968194;28;20562;-79
2022/08/24 03:44:23;;;;;;;53.33;44.60;;;;;;;18.55;100.00;101753.16;4949145;28;20060;-82
2022/08/24 03:46:54;;;;;;;54.40;44.72;;;;;;;18.56;100.00;101757.56;4980197;28;20026;-80
2022/08/24 03:49:24;;;;;;;50.42;43.20;;;;;;;18.55;100.00;101755.81;4976699;28;20053;-80
2022/08/24 03:51:53;;;;;;;49.90;42.15;;;;;;;18.54;100.00;101754.03;4972715;28;20180;-80
2022/08/24 03:54:24;;;;;;;47.38;41.20;;;;;;;18.53;100.00;101760.31;4972363;28;20072;-82
2022/08/24 03:56:52;;;;;;;48.17;41.47;;;;;;;18.51;100.00;101752.31;5007890;28;20041;-82
2022/08/24 03:59:21;;;;;;;50.63;43.15;;;;;;;18.52;100.00;101758.53;4952777;28;20042;-80
2022/08/24 04:01:54;;;;;;;47.45;39.40;;;;;;;18.50;100.00;101758.56;4940772;28;20383;-82
2022/08/24 04:04:25;;;;;;;49.30;42.28;;;;;;;18.48;100.00;101757.69;4965314;28;20248;-80
2022/08/24 04:06:53;;;;;;;44.35;38.92;;;;;;;18.47;100.00;101758.63;5003957;28;20050;-80
2022/08/24 04:09:23;;;;;;;44.55;38.65;;;;;;;18.47;100.00;101757.75;4987804;28;20046;-80
2022/08/24 04:11:52;;;;;;;44.55;38.72;;;;;;;18.46;100.00;101766.63;5014699;28;20049;-79
2022/08/24 04:14:24;;;;;;;43.97;39.25;;;;;;;18.43;100.00;101756.00;4935264;28;20060;-80
2022/08/24 04:17:07;;;;;;;42.40;37.63;;;;;;;18.40;100.00;101759.59;4968924;28;20056;-80
2022/08/24 04:19:56;;;;;;;42.55;37.88;;;;;;;18.39;100.00;101760.53;4981440;28;20050;-80
2022/08/24 04:22:35;;;;;;;45.97;39.90;;;;;;;18.37;100.00;101762.31;4978260;28;20439;-80
2022/08/24 04:25:05;;;;;;;41.40;37.05;;;;;;;18.36;100.00;101760.56;4999266;28;20050;-81
2022/08/24 04:27:39;;;;;;;43.13;38.50;;;;;;;18.36;100.00;101765.03;4981103;28;20041;-80
2022/08/24 04:30:09;;;;;;;44.00;36.28;;;;;;;18.34;100.00;101767.72;4942792;28;20045;-80
2022/08/24 04:33:00;;;;;;;45.08;38.33;;;;;;;18.33;100.00;101767.72;5005474;28;20048;-81
2022/08/24 04:35:29;;;;;;;44.25;38.33;;;;;;;18.30;100.00;101777.53;4985965;28;20060;-80
2022/08/24 04:37:58;;;;;;;45.88;39.53;;;;;;;18.31;100.00;101773.94;5001334;28;20395;-81
2022/08/24 04:40:26;;;;;;;43.22;38.53;;;;;;;18.30;100.00;101772.22;4992606;28;20187;-79
2022/08/24 04:42:57;;;;;;;50.05;42.28;;;;;;;18.30;100.00;101774.00;4971901;28;20034;-80
2022/08/24 04:45:28;;;;;;;45.65;40.28;;;;;;;18.30;100.00;101779.34;4950946;28;20365;-79
2022/08/24 04:47:57;;;;;;;46.22;39.85;;;;;;;18.32;100.00;101782.88;4999178;28;20042;-80
2022/08/24 04:50:27;;;;;;;44.50;39.70;;;;;;;18.30;100.00;101782.88;4983879;28;20053;-80
2022/08/24 04:52:57;;;;;;;47.78;41.45;;;;;;;18.30;100.00;101785.53;4995560;28;20044;-81
2022/08/24 04:55:26;;;;;;;43.35;38.70;;;;;;;18.31;100.00;101779.28;4978017;28;20038;-80
2022/08/24 04:57:54;;;;;;;46.80;38.63;;;;;;;18.33;100.00;101786.41;4990142;28;20049;-81
2022/08/24 05:00:23;;;;;;;40.95;36.38;;;;;;;18.33;100.00;101784.59;4944131;28;20699;-80
2022/08/24 05:02:56;;;;;;;43.95;38.58;;;;;;;18.34;100.00;101780.19;4988215;28;20046;-80
2022/08/24 05:05:27;;;;;;;46.33;39.28;;;;;;;18.37;100.00;101789.00;4981226;28;20578;-79
2022/08/24 05:07:56;;;;;;;46.28;41.30;;;;;;;18.39;100.00;101791.66;4993778;28;20487;-82
2022/08/24 05:10:25;;;;;;;47.70;42.10;;;;;;;18.43;100.00;101788.94;4956131;28;20038;-80
2022/08/24 05:13:01;;;;;;;45.97;40.60;;;;;;;18.46;100.00;101786.19;4982986;28;20049;-81
2022/08/24 05:15:30;;;;;;;44.33;39.70;;;;;;;18.50;100.00;101785.25;4972701;28;20335;-80
2022/08/24 05:17:59;;;;;;;49.40;44.03;;;;;;;18.55;100.00;101792.31;4953648;28;20049;-81
2022/08/24 05:20:28;;;;;;;47.63;42.53;;;;;;;18.60;100.00;101795.78;4976083;28;20565;-81
2022/08/24 05:22:57;;;;;;;45.40;40.43;;;;;;;18.63;100.00;101790.41;4969919;28;20052;-80
2022/08/24 05:25:32;;;;;;;42.60;38.08;;;;;;;18.66;100.00;101791.25;4981481;28;20282;-80
2022/08/24 05:28:01;;;;;;;42.45;37.95;;;;;;;18.70;100.00;101792.97;4979644;28;20046;-80
2022/08/24 05:30:29;;;;;;;41.00;36.70;;;;;;;18.74;100.00;101796.47;4993462;28;20350;-80
2022/08/24 05:32:58;;;;;;;36.08;32.28;;;;;;;18.78;100.00;101798.16;4959714;28;20042;-87
2022/08/24 05:35:27;;;;;;;36.80;33.30;;;;;;;18.82;100.00;101804.38;4967809;28;20034;-90
2022/08/24 05:37:58;;;;;;;34.88;31.45;;;;;;;18.87;100.00;101805.19;4924588;28;20042;-89
2022/08/24 05:40:36;;;;;;;34.50;31.00;;;;;;;18.95;100.00;101808.63;4976236;28;20066;-87
2022/08/24 05:43:05;;;;;;;34.25;30.80;;;;;;;19.01;100.00;101816.53;4968560;28;20175;-86
2022/08/24 05:45:33;;;;;;;34.08;30.52;;;;;;;19.07;100.00;101804.84;4960072;28;20491;-86
2022/08/24 05:48:02;;;;;;;32.50;29.05;;;;;;;19.13;100.00;101815.47;4949260;28;20265;-86
2022/08/24 05:50:56;;;;;;;31.65;28.55;;;;;;;19.20;100.00;101816.22;4977753;28;20050;-88
2022/08/24 05:53:29;;;;;;;39.05;35.15;;;;;;;19.27;100.00;101816.09;4993320;28;20111;-88
2022/08/24 05:56:06;;;;;;;37.13;33.20;;;;;;;19.34;100.00;101811.53;4998683;28;20049;-87
2022/08/24 05:58:38;;;;;;;39.33;35.22;;;;;;;19.40;100.00;101807.84;4984665;28;20039;-87
2022/08/24 06:01:10;;;;;;;40.72;36.42;;;;;;;19.48;100.00;101819.28;5009876;28;20049;-87
2022/08/24 06:03:39;;;;;;;42.97;37.22;;;;;;;19.57;100.00;101818.25;4964906;28;20065;-87
2022/08/24 06:06:10;;;;;;;42.10;37.67;;;;;;;19.69;100.00;101815.31;4951153;28;20047;-86
2022/08/24 06:08:41;;;;;;;44.13;38.83;;;;;;;19.85;100.00;101814.16;4989488;28;20049;-87
2022/08/24 06:11:23;;;;;;;49.03;40.70;;;;;;;20.07;100.00;101824.38;4993001;28;20045;-87
2022/08/24 06:14:01;;;;;;;43.50;38.75;;;;;;;20.19;100.00;101816.13;4970428;28;20029;-89
2022/08/24 06:16:38;;;;;;;45.53;40.50;;;;;;;20.32;100.00;101829.22;4998704;28;20041;-87
2022/08/24 06:19:10;;;;;;;51.45;42.95;;;;;;;20.40;100.00;101832.63;4952458;28;20065;-83
2022/08/24 06:21:39;;;;;;;60.85;46.33;;;;;;;20.50;100.00;101836.84;4986693;28;20053;-83
2022/08/24 06:24:08;;;;;;;68.20;51.70;;;;;;;20.61;100.00;101836.66;4973516;28;20958;-82
2022/08/24 06:29:24;;;;;;;70.68;57.47;;;;;;;20.81;100.00;101838.84;4974994;28;20039;-84
2022/08/24 06:31:57;;;;;;;72.40;53.92;;;;;;;20.92;100.00;101841.28;4960087;28;20038;-83
2022/08/24 06:34:27;;;;;;;;;;;;;;;21.00;100.00;101845.53;4966545;28;20045;-82
2022/08/24 06:36:56;;;;;;;57.63;50.38;;;;;;;21.10;100.00;101845.31;5004861;28;19922;-83
2022/08/24 06:39:27;;;;;;;55.22;46.08;;;;;;;21.16;100.00;101847.84;4968031;28;20117;-84
2022/08/24 06:41:57;;;;;;;54.88;47.05;;;;;;;21.22;100.00;101844.97;5002522;28;20495;-83
2022/08/24 06:44:33;;;;;;;59.75;48.45;;;;;;;21.28;100.00;101847.50;4972511;28;20061;-84
2022/08/24 06:47:12;;;;;;;53.83;46.88;;;;;;;21.33;100.00;101842.91;4963429;28;20057;-84
2022/08/24 06:49:40;;;;;;;53.42;47.38;;;;;;;21.40;100.00;101846.31;4935377;28;20538;-83
2022/08/24 06:52:12;;;;;;;58.50;48.05;;;;;;;21.49;100.00;101848.78;5011670;28;20042;-83
2022/08/24 06:54:42;;;;;;;54.63;47.40;;;;;;;21.66;100.00;101851.00;4976797;28;20239;-83
2022/08/24 06:57:11;;;;;;;57.45;47.95;;;;;;;21.90;100.00;101844.09;5001990;28;20032;-84
2022/08/24 06:59:41;;;;;;;54.58;46.22;;;;;;;22.11;100.00;101847.94;4995884;28;20046;-84
2022/08/24 07:02:14;;;;;;;48.67;43.38;;;;;;;22.29;100.00;101840.34;4946300;28;20058;-84
2022/08/24 07:04:45;;;;;;;59.90;53.47;;;;;;;22.60;100.00;101839.38;4974210;28;20043;-84
2022/08/24 07:07:32;;;;;;;47.63;40.45;;;;;;;22.86;100.00;101843.94;4958743;28;20061;-84
2022/08/24 07:10:04;;;;;;;45.40;39.38;;;;;;;22.96;100.00;101838.19;4961547;28;20042;-84
2022/08/24 07:12:35;;;;;;;44.47;39.28;;;;;;;23.06;100.00;101848.66;4982470;28;20157;-85
2022/08/24 07:15:04;;;;;;;44.75;36.83;;;;;;;23.13;100.00;101856.47;4992807;28;20057;-84
2022/08/24 07:17:45;;;;;;;47.13;38.70;;;;;;;23.19;100.00;101857.22;4963606;28;20042;-83
2022/08/24 07:20:14;;;;;;;47.00;38.00;;;;;;;23.26;100.00;101866.81;4977538;28;20054;-84
2022/08/24 07:23:11;;;;;;;52.45;44.85;;;;;;;23.32;100.00;101862.09;4985830;28;20050;-84
2022/08/24 07:25:41;;;;;;;43.22;38.28;;;;;;;23.39;100.00;101872.69;4977833;28;20045;-84
2022/08/24 07:28:21;;;;;;;42.55;38.08;;;;;;;23.43;100.00;101874.31;4982686;28;20379;-82
2022/08/24 07:31:00;;;;;;;47.58;34.85;;;;;;;23.47;100.00;101879.53;4987120;28;20046;-80
2022/08/24 07:33:34;;;;;;;40.03;34.50;;;;;;;23.57;100.00;101887.28;4977221;28;20535;-80
2022/08/24 07:36:03;;;;;;;40.88;33.90;;;;;;;23.60;100.00;101877.28;4984839;28;20404;-81
2022/08/24 07:38:33;;;;;;;42.60;38.15;;;;;;;23.64;100.00;101892.41;4921805;28;20039;-83
2022/08/24 07:41:01;;;;;;;41.90;34.85;;;;;;;23.66;100.00;101882.44;4964006;28;20038;-81
2022/08/24 07:43:51;;;;;;;39.35;34.92;;;;;;;23.71;100.00;101879.63;4947429;28;20051;-83
2022/08/24 07:46:21;;;;;;;35.42;31.63;;;;;;;23.75;100.00;101881.25;4950930;28;20052;-82
2022/08/24 07:48:54;;;;;;;27.83;24.92;;;;;;;23.79;100.00;101887.44;4989739;28;20038;-81
2022/08/24 07:51:39;;;;;;;22.05;19.75;;;;;;;23.81;100.00;101885.56;4914059;28;20488;-81
2022/08/24 07:54:14;;;;;;;30.92;26.67;;;;;;;23.88;100.00;101885.31;4952677;28;20042;-82
2022/08/24 07:56:44;;;;;;;25.85;21.77;;;;;;;23.90;100.00;101886.13;4964758;28;20038;-82
2022/08/24 07:59:13;;;;;;;24.38;22.02;;;;;;;23.89;100.00;101878.09;4975146;28;20245;-82
2022/08/24 08:01:41;;;;;;;19.25;15.35;;;;;;;23.93;100.00;101890.50;4963922;28;20038;-84
2022/08/24 08:04:13;;;;;;;18.08;16.27;;;;;;;24.01;100.00;101883.03;4973552;28;20046;-83
2022/08/24 08:06:41;;;;;;;22.45;17.85;;;;;;;24.06;100.00;101891.81;4959822;28;20042;-82
2022/08/24 08:09:10;;;;;;;21.40;18.88;;;;;;;24.09;100.00;101891.72;4969363;28;20053;-84
2022/08/24 08:11:40;;;;;;;26.33;19.52;;;;;;;24.16;100.00;101896.84;4961336;28;20042;-82
2022/08/24 08:14:09;;;;;;;19.35;17.20;;;;;;;24.15;100.00;101893.28;4966173;28;20176;-83
2022/08/24 08:16:38;;;;;;;18.38;16.45;;;;;;;24.23;100.00;101901.94;4953260;28;20042;-82
2022/08/24 08:19:06;;;;;;;21.65;19.35;;;;;;;24.30;100.00;101913.38;4975206;28;20169;-82
2022/08/24 08:24:57;;;;;;;16.83;13.23;;;;;;;24.42;100.00;101912.03;4947484;28;20264;-83
2022/08/24 08:27:26;;;;;;;18.67;16.17;;;;;;;24.51;100.00;101909.00;4962385;28;20039;-83
2022/08/24 08:29:56;;;;;;;15.52;13.85;;;;;;;24.60;100.00;101911.38;4960028;28;20182;-83
2022/08/24 08:32:24;;;;;;;15.82;14.32;;;;;;;24.75;100.00;101914.44;4938196;28;20039;-83
2022/08/24 08:34:54;;;;;;;14.80;13.30;;;;;;;24.85;100.00;101908.59;4968106;28;20530;-83
2022/08/24 08:37:30;;;;;;;17.25;12.50;;;;;;;25.01;100.00;101916.06;4994496;28;20051;-83
2022/08/24 08:39:59;;;;;;;16.42;13.88;;;;;;;25.15;100.00;101908.28;4936670;28;20142;-83
2022/08/24 08:42:55;;;;;;;14.38;12.35;;;;;;;25.28;100.00;101923.06;4958752;28;20042;-83
2022/08/24 08:46:02;;;;;;;16.40;10.70;;;;;;;25.41;100.00;101912.63;4962051;28;20042;-83
2022/08/24 08:49:23;;;;;;;15.73;11.93;;;;;;;25.57;100.00;101920.06;4965462;28;20050;-83
2022/08/24 08:52:25;;;;;;;17.17;11.18;;;;;;;25.65;100.00;101921.50;4947439;28;20046;-83
2022/08/24 08:55:13;;;;;;;12.52;10.30;;;;;;;25.76;100.00;101922.84;4923152;28;20566;-82
2022/08/24 08:58:02;;;;;;;17.80;10.88;;;;;;;25.99;100.00;101924.56;4945656;28;20049;-83
2022/08/24 09:01:10;;;;;;;16.40;11.60;;;;;;;26.23;100.00;101922.56;4960377;28;20495;-82
2022/08/24 09:04:04;;;;;;;14.63;11.48;;;;;;;26.39;98.64;101915.53;4924481;28;20519;-82
2022/08/24 09:07:21;;;;;;;14.80;10.50;;;;;;;26.42;99.58;101914.50;4969453;28;20049;-82
2022/08/24 09:10:27;;;;;;;12.15;10.38;;;;;;;26.43;100.00;101914.44;4934932;28;20035;-82
2022/08/24 09:13:08;;;;;;;14.35;12.40;;;;;;;26.40;99.62;101924.50;4974407;28;20073;-82
2022/08/24 09:16:17;;;;;;;10.18;9.18;;;;;;;26.36;99.56;101921.06;4944949;28;20038;-83
2022/08/24 09:19:09;;;;;;;13.60;12.10;;;;;;;26.32;98.68;101919.47;4918165;28;20043;-82
2022/08/24 09:21:59;;;;;;;10.80;9.80;;;;;;;26.26;98.07;101917.06;4959359;28;20043;-82
2022/08/24 09:24:39;;;;;;;18.15;10.75;;;;;;;26.15;97.94;101916.66;4961361;28;20374;-81
2022/08/24 09:27:42;;;;;;;11.30;7.85;;;;;;;26.19;99.14;101915.56;4950416;28;20039;-82
2022/08/24 09:30:19;;;;;;;12.57;8.55;;;;;;;26.28;99.10;101925.97;4969244;28;20066;-82
2022/08/24 09:33:03;;;;;;;13.40;10.25;;;;;;;26.23;97.17;101925.28;4956250;28;20042;-82
2022/08/24 09:35:47;;;;;;;13.00;9.60;;;;;;;26.28;97.07;101920.56;4987094;28;20038;-82
2022/08/24 09:38:42;;;;;;;15.35;11.57;;;;;;;26.24;95.75;101918.94;4979424;28;20050;-82
2022/08/24 09:41:57;;;;;;;16.08;10.02;;;;;;;26.17;94.45;101918.34;4963007;28;20336;-81
2022/08/24 09:44:38;;;;;;;14.82;9.07;;;;;;;26.04;96.58;101918.00;4980422;28;20400;-82
2022/08/24 09:47:28;;;;;;;12.63;10.80;;;;;;;26.03;96.24;101915.38;4952646;28;20046;-82
2022/08/24 09:49:59;;;;;;;11.05;8.70;;;;;;;26.04;96.88;101925.25;4959696;28;20153;-82
2022/08/24 09:52:44;;;;;;;12.93;9.55;;;;;;;26.00;95.69;101923.63;4980823;28;20035;-82
2022/08/24 09:55:31;;;;;;;9.68;8.65;;;;;;;25.94;95.64;101926.59;4969385;28;20067;-82
2022/08/24 09:58:43;;;;;;;9.55;7.60;;;;;;;25.97;95.22;101923.75;4927601;28;20153;-82
2022/08/24 10:01:35;;;;;;;10.48;8.07;;;;;;;26.05;95.50;101922.47;4951549;28;20157;-82
2022/08/24 10:04:11;;;;;;;8.35;7.45;;;;;;;26.01;93.55;101928.06;4989485;28;20053;-82
2022/08/24 10:06:48;;;;;;;6.40;5.78;;;;;;;25.98;94.28;101921.00;4966714;28;20384;-84
2022/08/24 10:09:41;;;;;;;6.82;6.10;;;;;;;26.03;93.60;101927.06;4978943;28;20389;-82
2022/08/24 10:12:45;;;;;;;7.18;5.75;;;;;;;26.04;92.02;101925.25;4962218;28;20050;-82
2022/08/24 10:15:34;;;;;;;6.43;4.95;;;;;;;26.01;92.23;101931.66;4980201;28;20039;-83
2022/08/24 10:18:21;;;;;;;7.00;5.32;;;;;;;26.04;91.90;101923.41;4963250;28;20057;-82
2022/08/24 10:21:02;;;;;;;5.75;5.25;;;;;;;26.16;93.53;101923.78;4965128;28;20038;-83
2022/08/24 10:23:50;;;;;;;10.73;7.28;;;;;;;26.27;91.73;101913.38;4973153;28;20046;-81
2022/08/24 10:26:56;;;;;;;8.35;5.72;;;;;;;26.38;91.37;101916.47;4949136;28;20058;-82
2022/08/24 10:29:27;;;;;;;7.25;4.40;;;;;;;26.45;90.54;101912.53;4963728;28;20042;-82
2022/08/24 10:32:33;;;;;;;5.25;4.80;;;;;;;26.50;88.16;101908.72;4993614;28;20077;-84
2022/08/24 10:35:12;;;;;;;4.38;3.97;;;;;;;26.43;88.43;101914.44;4947569;28;20042;-81
2022/08/24 10:41:22;;;;;;;5.93;3.38;;;;;;;26.51;89.38;101908.66;4979702;28;20275;-83
2022/08/24 10:44:11;;;;;;;6.60;3.63;;;;;;;26.62;89.24;101913.59;4987651;28;20042;-83
2022/08/24 10:47:05;;;;;;;6.53;3.63;;;;;;;26.76;87.65;101911.09;5011985;28;20050;-82
2022/08/24 10:49:36;;;;;;;7.45;3.92;;;;;;;26.81;87.31;101909.06;5003574;28;20628;-80
2022/08/24 10:52:42;;;;;;;4.50;3.42;;;;;;;26.92;86.64;101915.75;4986911;28;20053;-78
2022/08/24 10:55:20;;;;;;;5.50;4.40;;;;;;;26.96;85.85;101912.84;5002398;28;20244;-79
2022/08/24 10:57:55;;;;;;;6.50;4.72;;;;;;;26.99;86.10;101901.00;4959690;28;20035;-80
2022/08/24 11:00:29;;;;;;;6.70;3.90;;;;;;;27.04;85.84;101909.75;4987181;28;20408;-80
2022/08/24 11:03:20;;;;;;;6.25;4.30;;;;;;;27.12;84.99;101904.84;5016086;28;20260;-82
2022/08/24 11:05:56;;;;;;;9.82;3.55;;;;;;;27.20;86.59;101899.94;4973118;28;20509;-80
2022/08/24 11:08:32;;;;;;;7.47;3.33;;;;;;;27.32;85.55;101892.19;4966497;28;20259;-80
2022/08/24 11:11:08;;;;;;;7.32;4.28;;;;;;;27.35;83.49;101898.31;4992008;28;20285;-80
2022/08/24 11:13:49;;;;;;;12.27;3.60;;;;;;;27.37;84.43;101899.13;4948320;28;20042;-80
2022/08/24 11:16:41;;;;;;;9.05;5.07;;;;;;;27.43;82.87;101895.22;4986610;28;20270;-80
2022/08/24 11:19:13;;;;;;;5.30;4.63;;;;;;;27.40;82.10;101900.78;5007229;28;20046;-80
2022/08/24 11:21:42;;;;;;;6.43;5.10;;;;;;;27.37;81.22;101895.50;5014343;28;20046;-80
2022/08/24 11:24:37;;;;;;;4.97;3.65;;;;;;;27.38;82.37;101897.28;4970474;28;20048;-80
2022/08/24 11:27:29;;;;;;;7.63;4.03;;;;;;;27.41;81.82;101894.41;5002208;28;20068;-82
2022/08/24 11:30:02;;;;;;;8.20;4.20;;;;;;;27.49;82.32;101899.44;4952516;28;20048;-81
2022/08/24 11:32:42;;;;;;;5.88;3.78;;;;;;;27.58;82.97;101899.84;4994133;28;20057;-83
2022/08/24 11:35:13;;;;;;;;;;;;;;;27.64;81.54;101904.06;4985966;28;20053;-82
2022/08/24 11:38:22;;;;;;;12.35;4.03;;;;;;;27.63;80.65;101896.00;4990654;28;19936;-81
2022/08/24 11:40:59;;;;;;;6.93;4.05;;;;;;;27.69;81.47;101907.38;4988235;28;20048;-82
2022/08/24 11:43:46;;;;;;;7.45;4.43;;;;;;;27.72;80.57;101899.13;4990048;28;20057;-82
2022/08/24 11:46:49;;;;;;;7.88;4.68;;;;;;;27.75;79.90;101906.19;5000377;28;20152;-82
2022/08/24 11:49:26;;;;;;;8.75;4.05;;;;;;;27.65;79.63;101896.81;4968591;28;20061;-82
2022/08/24 11:52:23;;;;;;;5.70;4.15;;;;;;;27.66;78.59;101901.28;5009133;28;20042;-82
2022/08/24 11:55:07;;;;;;;4.10;3.58;;;;;;;27.66;78.76;101902.16;4998805;28;20045;-81
2022/08/24 11:58:01;;;;;;;6.88;4.53;;;;;;;27.69;79.08;101896.56;4989111;28;20387;-82
2022/08/24 12:00:58;;;;;;;5.43;4.90;;;;;;;27.69;78.27;101898.41;4989040;28;20049;-82